createdAt,value
2022-08-28T00:01:41.039Z,17.58
2022-08-28T00:04:16.976Z,16.80
2022-08-28T00:06:49.316Z,17.67
2022-08-28T00:09:21.208Z,17.42
2022-08-28T00:11:55.714Z,17.88
2022-08-28T00:14:32.182Z,19.15
2022-08-28T00:17:08.678Z,16.25
2022-08-28T00:19:45.846Z,15.68
2022-08-28T00:22:20.858Z,13.40
2022-08-28T00:24:52.481Z,11.45
2022-08-28T00:27:42.493Z,10.90
2022-08-28T00:30:14.477Z,10.80
2022-08-28T00:32:46.822Z,10.05
2022-08-28T00:35:20.106Z,10.27
2022-08-28T00:37:55.250Z,10.90
2022-08-28T00:40:33.837Z,10.80
2022-08-28T00:43:10.396Z,10.05
2022-08-28T00:45:41.930Z,10.15
2022-08-28T00:48:13.803Z,9.43
2022-08-28T00:51:00.786Z,10.00
2022-08-28T00:53:35.211Z,8.70
2022-08-28T00:56:15.149Z,8.32
2022-08-28T00:58:57.918Z,9.05
2022-08-28T01:01:32.704Z,8.48
2022-08-28T01:04:06.416Z,8.88
2022-08-28T01:06:39.058Z,8.40
2022-08-28T01:09:12.464Z,8.57
2022-08-28T01:11:47.222Z,8.20
2022-08-28T01:14:24.906Z,8.32
2022-08-28T01:16:58.381Z,8.57
2022-08-28T01:19:35.381Z,8.80
2022-08-28T01:22:21.730Z,9.52
2022-08-28T01:24:59.064Z,9.88
2022-08-28T01:27:31.415Z,10.75
2022-08-28T01:30:04.509Z,12.10
2022-08-28T01:32:41.188Z,12.50
2022-08-28T01:35:17.319Z,13.13
2022-08-28T01:37:51.253Z,13.77
2022-08-28T01:40:29.727Z,13.52
2022-08-28T01:43:10.268Z,14.88
2022-08-28T01:45:42.681Z,15.68
2022-08-28T01:48:15.637Z,17.15
2022-08-28T01:50:51.168Z,15.82
2022-08-28T01:53:32.496Z,16.90
2022-08-28T01:56:12.317Z,16.50
2022-08-28T01:58:44.925Z,17.33
2022-08-28T02:01:20.573Z,17.65
2022-08-28T02:03:53.621Z,18.02
2022-08-28T02:06:26.136Z,18.42
2022-08-28T02:08:58.127Z,18.58
2022-08-28T02:11:33.667Z,18.67
2022-08-28T02:14:06.185Z,19.10
2022-08-28T02:16:38.514Z,19.88
2022-08-28T02:19:10.468Z,19.17
2022-08-28T02:21:43.785Z,19.67
2022-08-28T02:24:27.232Z,20.17
2022-08-28T02:27:05.638Z,19.77
2022-08-28T02:29:39.476Z,19.13
2022-08-28T02:32:13.273Z,19.25
2022-08-28T02:34:45.677Z,19.00
2022-08-28T02:37:23.327Z,19.08
2022-08-28T02:39:58.249Z,17.10
2022-08-28T02:42:36.000Z,19.13
2022-08-28T02:45:12.222Z,17.42
2022-08-28T02:47:46.824Z,16.55
2022-08-28T02:50:22.093Z,15.35
2022-08-28T02:52:55.283Z,14.57
2022-08-28T02:55:31.347Z,14.48
2022-08-28T02:58:24.411Z,13.68
2022-08-28T03:00:57.206Z,13.13
2022-08-28T03:03:32.842Z,12.35
2022-08-28T03:06:05.312Z,12.65
2022-08-28T03:08:37.852Z,11.65
2022-08-28T03:11:09.573Z,10.98
2022-08-28T03:13:45.064Z,11.00
2022-08-28T03:16:17.080Z,10.68
2022-08-28T03:18:51.747Z,11.07
2022-08-28T03:21:25.719Z,10.98
2022-08-28T03:23:55.231Z,11.00
2022-08-28T03:26:30.143Z,9.73
2022-08-28T03:29:04.464Z,10.43
2022-08-28T03:31:36.538Z,10.00
2022-08-28T03:34:09.844Z,9.98
2022-08-28T03:36:44.299Z,9.18
2022-08-28T03:39:19.216Z,8.50
2022-08-28T03:41:52.391Z,9.10
2022-08-28T03:44:26.967Z,9.00
2022-08-28T03:47:01.956Z,8.57
2022-08-28T03:49:34.703Z,9.30
2022-08-28T03:52:07.136Z,8.88
2022-08-28T03:54:40.463Z,8.20
2022-08-28T03:57:12.500Z,7.80
2022-08-28T03:59:47.230Z,7.60
2022-08-28T04:02:20.819Z,7.55
2022-08-28T04:04:54.487Z,7.38
2022-08-28T04:07:26.262Z,7.22
2022-08-28T04:09:58.399Z,7.78
2022-08-28T04:12:30.284Z,7.45
2022-08-28T04:15:11.627Z,7.63
2022-08-28T04:17:44.038Z,6.72
2022-08-28T04:20:16.026Z,6.90
2022-08-28T04:22:49.829Z,6.63
2022-08-28T04:25:27.717Z,7.75
2022-08-28T04:27:59.367Z,5.97
2022-08-28T04:30:34.240Z,6.22
2022-08-28T04:33:06.677Z,6.90
2022-08-28T04:35:41.388Z,6.68
2022-08-28T04:38:14.269Z,6.22
2022-08-28T04:40:46.375Z,6.38
2022-08-28T04:43:18.087Z,5.43
2022-08-28T04:45:53.376Z,5.90
2022-08-28T04:48:25.384Z,6.63
2022-08-28T04:50:59.074Z,5.80
2022-08-28T04:53:31.452Z,5.65
2022-08-28T04:56:06.152Z,5.65
2022-08-28T04:58:39.091Z,6.05
2022-08-28T05:01:19.241Z,5.00
2022-08-28T05:03:55.729Z,5.95
2022-08-28T05:06:30.061Z,5.50
2022-08-28T05:09:04.240Z,5.10
2022-08-28T05:11:36.519Z,5.50
2022-08-28T05:14:12.749Z,5.05
2022-08-28T05:16:53.106Z,5.30
2022-08-28T05:19:25.351Z,5.40
2022-08-28T05:21:58.649Z,5.55
2022-08-28T05:24:30.740Z,5.80
2022-08-28T05:27:03.249Z,5.28
2022-08-28T05:29:35.416Z,5.28
2022-08-28T05:32:13.019Z,5.47
2022-08-28T05:34:44.736Z,4.93
2022-08-28T05:37:19.673Z,5.90
2022-08-28T05:39:56.895Z,5.78
2022-08-28T05:42:30.737Z,5.13
2022-08-28T05:45:04.181Z,5.35
2022-08-28T05:47:39.384Z,5.80
2022-08-28T05:50:14.045Z,5.47
2022-08-28T05:52:46.942Z,5.35
2022-08-28T05:55:19.042Z,5.85
2022-08-28T05:57:51.645Z,5.32
2022-08-28T06:00:23.924Z,5.80
2022-08-28T06:02:59.683Z,5.97
2022-08-28T06:05:31.644Z,5.90
2022-08-28T06:08:04.124Z,6.70
2022-08-28T06:10:37.594Z,6.00
2022-08-28T06:13:11.083Z,6.40
2022-08-28T06:15:46.144Z,6.18
2022-08-28T06:18:21.053Z,6.50
2022-08-28T06:20:54.526Z,6.20
2022-08-28T06:23:26.928Z,6.05
2022-08-28T06:26:01.370Z,6.55
2022-08-28T06:28:33.596Z,5.45
2022-08-28T06:31:24.270Z,5.72
2022-08-28T06:34:03.613Z,6.90
2022-08-28T06:36:38.504Z,6.90
2022-08-28T06:39:15.046Z,6.70
2022-08-28T06:41:46.941Z,7.10
2022-08-28T06:44:22.552Z,6.50
2022-08-28T06:46:58.175Z,5.88
2022-08-28T06:49:33.634Z,6.65
2022-08-28T06:52:05.562Z,7.22
2022-08-28T06:54:40.326Z,6.88
2022-08-28T06:57:17.064Z,7.20
2022-08-28T06:59:49.467Z,7.25
2022-08-28T07:02:21.679Z,7.43
2022-08-28T07:05:04.109Z,7.38
2022-08-28T07:07:35.813Z,7.07
2022-08-28T07:10:08.786Z,6.97
2022-08-28T07:12:40.758Z,7.32
2022-08-28T07:15:15.212Z,7.00
2022-08-28T07:17:47.307Z,6.78
2022-08-28T07:20:22.813Z,6.35
2022-08-28T07:22:59.618Z,6.40
2022-08-28T07:25:35.055Z,6.10
2022-08-28T07:28:07.268Z,5.75
2022-08-28T07:30:42.319Z,5.82
2022-08-28T07:39:30.652Z,5.72
2022-08-28T07:42:03.184Z,5.28
2022-08-28T07:44:47.533Z,5.75
2022-08-28T07:47:23.332Z,5.95
2022-08-28T07:49:55.885Z,6.10
2022-08-28T07:52:28.453Z,6.13
2022-08-28T07:55:03.264Z,6.25
2022-08-28T07:57:35.975Z,6.38
2022-08-28T08:00:11.504Z,5.70
2022-08-28T08:02:43.944Z,6.10
2022-08-28T08:05:16.022Z,6.30
2022-08-28T08:07:48.256Z,5.93
2022-08-28T08:10:23.822Z,5.80
2022-08-28T08:12:56.462Z,5.82
2022-08-28T08:15:31.219Z,6.00
2022-08-28T08:18:04.135Z,5.90
2022-08-28T08:20:35.863Z,5.90
2022-08-28T08:23:07.802Z,6.38
2022-08-28T08:25:42.395Z,6.68
2022-08-28T08:28:15.906Z,6.75
2022-08-28T08:30:48.284Z,6.68
2022-08-28T08:33:20.652Z,6.38
2022-08-28T08:35:55.761Z,6.60
2022-08-28T08:38:27.858Z,7.13
2022-08-28T08:41:04.319Z,6.50
2022-08-28T08:43:52.666Z,7.38
2022-08-28T08:46:29.349Z,7.38
2022-08-28T08:49:05.740Z,7.22
2022-08-28T08:51:49.625Z,7.07
2022-08-28T08:54:24.980Z,7.60
2022-08-28T08:56:59.431Z,8.38
2022-08-28T08:59:38.806Z,7.43
2022-08-28T09:02:18.329Z,7.10
2022-08-28T09:04:55.951Z,7.82
2022-08-28T09:07:38.266Z,8.00
2022-08-28T09:10:15.905Z,8.10
2022-08-28T09:13:00.471Z,8.25
2022-08-28T09:15:37.281Z,7.60
2022-08-28T09:18:16.228Z,6.82
2022-08-28T09:20:53.349Z,7.47
2022-08-28T09:23:26.768Z,7.45
2022-08-28T09:26:06.301Z,7.93
2022-08-28T09:28:44.864Z,7.43
2022-08-28T09:31:20.095Z,8.45
2022-08-28T09:33:55.738Z,8.70
2022-08-28T09:36:33.696Z,7.25
2022-08-28T09:39:12.093Z,8.38
2022-08-28T09:42:06.037Z,7.10
2022-08-28T09:44:51.965Z,7.38
2022-08-28T09:47:49.001Z,7.55
2022-08-28T09:50:28.960Z,7.80
2022-08-28T09:53:16.063Z,7.88
2022-08-28T09:56:07.155Z,8.15
2022-08-28T09:58:41.315Z,8.10
2022-08-28T10:01:34.519Z,7.18
2022-08-28T10:04:18.109Z,7.72
2022-08-28T10:06:54.847Z,7.53
2022-08-28T10:09:36.236Z,8.88
2022-08-28T10:12:16.607Z,8.00
2022-08-28T10:15:00.401Z,7.82
2022-08-28T10:17:46.393Z,7.53
2022-08-28T10:20:26.984Z,7.35
2022-08-28T10:23:15.653Z,7.40
2022-08-28T10:25:57.684Z,7.18
2022-08-28T10:28:46.342Z,8.43
2022-08-28T10:31:33.177Z,8.65
2022-08-28T10:34:21.928Z,8.18
2022-08-28T10:37:03.907Z,6.95
2022-08-28T10:39:49.007Z,9.25
2022-08-28T10:42:36.233Z,8.30
2022-08-28T10:45:14.947Z,9.30
2022-08-28T10:47:52.707Z,8.50
2022-08-28T10:50:32.786Z,8.63
2022-08-28T10:53:10.149Z,8.43
2022-08-28T10:55:48.487Z,9.18
2022-08-28T10:58:24.910Z,9.35
2022-08-28T11:01:13.526Z,8.82
2022-08-28T11:03:50.027Z,7.93
2022-08-28T11:06:32.631Z,8.50
2022-08-28T11:09:25.072Z,8.77
2022-08-28T11:12:02.192Z,9.48
2022-08-28T11:14:39.319Z,8.52
2022-08-28T11:17:42.734Z,8.55
2022-08-28T11:20:21.167Z,8.38
2022-08-28T11:23:09.088Z,9.05
2022-08-28T11:25:50.728Z,8.32
2022-08-28T11:28:49.828Z,9.65
2022-08-28T11:31:45.808Z,9.82
2022-08-28T11:34:47.528Z,9.05
2022-08-28T11:37:41.627Z,9.60
2022-08-28T11:40:43.826Z,9.20
2022-08-28T11:43:37.654Z,10.40
2022-08-28T11:46:34.913Z,9.95
2022-08-28T11:49:09.848Z,9.73
2022-08-28T11:52:07.087Z,10.35
2022-08-28T11:54:52.507Z,9.02
2022-08-28T11:57:30.426Z,8.88
2022-08-28T12:00:12.208Z,11.32
2022-08-28T12:03:05.450Z,9.85
2022-08-28T12:05:54.707Z,11.05
2022-08-28T12:08:56.508Z,10.95
2022-08-28T12:11:53.828Z,11.20
2022-08-28T12:15:08.346Z,10.73
2022-08-28T12:17:58.307Z,10.73
2022-08-28T12:20:44.708Z,10.77
2022-08-28T12:23:40.287Z,10.63
2022-08-28T12:26:25.787Z,11.65
2022-08-28T12:29:00.667Z,12.32
2022-08-28T12:32:10.708Z,10.93
2022-08-28T12:35:12.488Z,10.05
2022-08-28T12:37:52.580Z,10.48
2022-08-28T12:40:29.010Z,9.73
2022-08-28T12:43:04.108Z,9.43
2022-08-28T12:45:42.683Z,9.77
2022-08-28T12:48:21.046Z,9.50
2022-08-28T12:51:03.310Z,9.82
2022-08-28T12:54:09.747Z,9.90
2022-08-28T12:56:42.588Z,9.30
2022-08-28T12:59:28.167Z,9.35
2022-08-28T13:02:05.337Z,10.32
2022-08-28T13:04:39.687Z,9.60
2022-08-28T13:07:15.906Z,9.98
2022-08-28T13:09:56.310Z,8.77
2022-08-28T13:12:54.530Z,9.07
2022-08-28T13:16:02.467Z,8.48
2022-08-28T13:18:46.567Z,7.88
2022-08-28T13:21:34.044Z,7.55
2022-08-28T13:24:39.546Z,7.07
2022-08-28T13:27:27.510Z,6.95
2022-08-28T13:30:09.347Z,6.15
2022-08-28T13:32:43.268Z,5.85
2022-08-28T13:35:34.327Z,6.40
2022-08-28T13:38:09.208Z,6.28
2022-08-28T13:40:59.848Z,6.20
2022-08-28T13:43:47.988Z,6.20
2022-08-28T13:46:20.383Z,6.45
2022-08-28T13:49:01.410Z,5.75
2022-08-28T13:51:33.906Z,6.10
2022-08-28T13:54:11.708Z,5.40
2022-08-28T13:56:45.547Z,5.15
2022-08-28T13:59:21.028Z,6.05
2022-08-28T14:02:09.678Z,5.50
2022-08-28T14:04:41.689Z,5.88
2022-08-28T14:07:14.370Z,6.10
2022-08-28T14:09:46.487Z,5.40
2022-08-28T14:12:19.226Z,5.22
2022-08-28T14:14:53.847Z,5.03
2022-08-28T14:17:26.468Z,5.78
2022-08-28T14:20:00.180Z,5.15
2022-08-28T14:22:32.548Z,4.90
2022-08-28T14:25:04.747Z,4.97
2022-08-28T14:27:37.169Z,5.07
2022-08-28T14:30:13.388Z,4.82
2022-08-28T14:32:45.707Z,5.28
2022-08-28T14:35:17.689Z,4.72
2022-08-28T14:37:49.847Z,4.97
2022-08-28T14:40:22.058Z,4.82
2022-08-28T14:42:54.487Z,4.82
2022-08-28T14:45:29.078Z,4.97
2022-08-28T14:48:01.387Z,5.40
2022-08-28T14:50:33.510Z,4.97
2022-08-28T14:53:06.097Z,4.90
2022-08-28T14:55:44.215Z,5.00
2022-08-28T14:58:17.586Z,5.53
2022-08-28T15:00:54.388Z,4.47
2022-08-28T15:03:26.947Z,4.82
2022-08-28T15:06:04.111Z,5.65
2022-08-28T15:08:37.047Z,4.78
2022-08-28T15:11:10.086Z,4.65
2022-08-28T15:13:42.670Z,4.53
2022-08-28T15:16:19.670Z,4.95
2022-08-28T15:18:52.307Z,5.10
2022-08-28T15:21:26.926Z,4.53
2022-08-28T15:24:00.551Z,4.55
2022-08-28T15:26:33.728Z,4.65
2022-08-28T15:29:07.407Z,4.45
2022-08-28T15:31:45.495Z,4.93
2022-08-28T15:34:21.165Z,4.32
2022-08-28T15:36:56.069Z,4.05
2022-08-28T15:39:42.248Z,4.47
2022-08-28T15:42:14.348Z,4.18
2022-08-28T15:44:46.916Z,4.22
2022-08-28T15:47:21.367Z,4.10
2022-08-28T15:49:58.347Z,4.68
2022-08-28T15:52:30.103Z,4.28
2022-08-28T15:55:02.328Z,4.22
2022-08-28T15:57:34.106Z,4.43
2022-08-28T16:00:10.433Z,4.78
2022-08-28T16:02:45.782Z,3.80
2022-08-28T16:05:18.464Z,4.10
2022-08-28T16:07:49.913Z,4.05
2022-08-28T16:10:26.215Z,3.70
2022-08-28T16:12:58.048Z,3.88
2022-08-28T16:15:30.446Z,3.90
2022-08-28T16:18:11.723Z,3.75
2022-08-28T16:20:48.309Z,3.40
2022-08-28T16:23:19.962Z,3.63
2022-08-28T16:25:51.808Z,3.35
2022-08-28T16:28:23.473Z,3.67
2022-08-28T16:30:55.845Z,3.63
2022-08-28T16:33:30.641Z,3.58
2022-08-28T16:36:04.183Z,3.30
2022-08-28T16:38:35.899Z,3.70
2022-08-28T16:41:08.543Z,3.60
2022-08-28T16:43:40.228Z,3.53
2022-08-28T16:46:17.785Z,4.10
2022-08-28T16:48:53.106Z,3.97
2022-08-28T16:51:27.313Z,3.55
2022-08-28T16:54:01.439Z,3.70
2022-08-28T16:56:34.481Z,3.47
2022-08-28T16:59:10.211Z,3.28
2022-08-28T17:01:43.624Z,3.47
2022-08-28T17:04:19.933Z,3.47
2022-08-28T17:06:52.513Z,3.25
2022-08-28T17:09:27.554Z,3.05
2022-08-28T17:12:00.733Z,2.92
2022-08-28T17:14:32.892Z,3.15
2022-08-28T17:17:05.572Z,2.80
2022-08-28T17:19:40.497Z,3.10
2022-08-28T17:22:27.364Z,3.63
2022-08-28T17:24:59.895Z,3.28
2022-08-28T17:27:33.094Z,3.28
2022-08-28T17:30:05.472Z,2.85
2022-08-28T17:32:37.836Z,3.13
2022-08-28T17:35:13.396Z,3.00
2022-08-28T17:37:46.793Z,3.05
2022-08-28T17:40:21.332Z,3.05
2022-08-28T17:42:54.894Z,3.03
2022-08-28T17:45:27.056Z,3.60
2022-08-28T17:47:59.954Z,3.15
2022-08-28T17:50:35.053Z,3.75
2022-08-28T17:53:07.812Z,3.38
2022-08-28T17:55:40.274Z,2.92
2022-08-28T17:58:13.461Z,3.20
2022-08-28T18:00:46.933Z,2.90
2022-08-28T18:03:28.819Z,2.92
2022-08-28T18:06:05.754Z,4.30
2022-08-28T18:08:37.803Z,4.28
2022-08-28T18:11:14.349Z,3.65
2022-08-28T18:13:46.433Z,3.88
2022-08-28T18:16:18.611Z,3.28
2022-08-28T18:18:50.889Z,3.78
2022-08-28T18:21:25.324Z,3.83
2022-08-28T18:23:57.488Z,3.42
2022-08-28T18:26:36.869Z,3.60
2022-08-28T18:29:12.187Z,3.80
2022-08-28T18:31:44.890Z,3.72
2022-08-28T18:34:17.215Z,3.60
2022-08-28T18:36:51.485Z,3.72
2022-08-28T18:39:29.354Z,3.38
2022-08-28T18:45:00.256Z,3.95
2022-08-28T18:47:32.487Z,3.20
2022-08-28T18:50:05.275Z,3.17
2022-08-28T18:52:42.173Z,3.22
2022-08-28T18:55:14.101Z,3.10
2022-08-28T18:57:49.110Z,2.92
2022-08-28T19:00:24.109Z,2.88
2022-08-28T19:03:00.823Z,3.47
2022-08-28T19:05:33.511Z,3.33
2022-08-28T19:08:11.751Z,2.90
2022-08-28T19:10:47.016Z,3.58
2022-08-28T19:13:19.212Z,3.10
2022-08-28T19:15:53.788Z,2.95
2022-08-28T19:18:25.914Z,2.83
2022-08-28T19:21:07.810Z,2.70
2022-08-28T19:23:56.017Z,3.42
2022-08-28T19:26:29.752Z,3.50
2022-08-28T19:29:04.481Z,3.13
2022-08-28T19:31:42.087Z,3.03
2022-08-28T19:34:15.645Z,3.65
2022-08-28T19:36:51.061Z,3.10
2022-08-28T19:39:26.534Z,2.97
2022-08-28T19:41:59.450Z,3.10
2022-08-28T19:44:31.771Z,3.40
2022-08-28T19:47:07.614Z,3.17
2022-08-28T19:49:39.161Z,2.90
2022-08-28T19:52:11.308Z,3.20
2022-08-28T19:54:45.981Z,3.20
2022-08-28T19:57:22.409Z,3.45
2022-08-28T19:59:54.088Z,2.95
2022-08-28T20:02:25.710Z,2.97
2022-08-28T20:05:00.376Z,3.42
2022-08-28T20:07:31.780Z,3.60
2022-08-28T20:10:07.503Z,3.92
2022-08-28T20:12:40.788Z,3.28
2022-08-28T20:15:22.102Z,3.28
2022-08-28T20:17:53.951Z,3.72
2022-08-28T20:20:30.072Z,3.10
2022-08-28T20:23:02.881Z,3.30
2022-08-28T20:25:43.994Z,3.65
2022-08-28T20:28:16.511Z,3.63
2022-08-28T20:30:49.900Z,3.30
2022-08-28T20:33:22.697Z,3.70
2022-08-28T20:36:03.556Z,3.10
2022-08-28T20:38:35.555Z,3.35
2022-08-28T20:41:14.522Z,3.60
2022-08-28T20:43:50.059Z,3.58
2022-08-28T20:46:22.374Z,3.60
2022-08-28T20:48:53.859Z,3.47
2022-08-28T20:51:50.803Z,3.60
2022-08-28T20:54:27.867Z,3.75
2022-08-28T20:57:05.053Z,3.47
2022-08-28T20:59:39.873Z,3.65
2022-08-28T21:02:15.224Z,3.50
2022-08-28T21:04:48.228Z,4.00
2022-08-28T21:07:22.905Z,4.13
2022-08-28T21:10:05.230Z,4.00
2022-08-28T21:12:42.872Z,3.45
2022-08-28T21:15:15.910Z,3.75
2022-08-28T21:17:47.501Z,3.78
2022-08-28T21:20:20.392Z,3.70
2022-08-28T21:22:53.470Z,3.80
2022-08-28T21:25:30.265Z,3.30
2022-08-28T21:28:04.607Z,3.42
2022-08-28T21:30:36.122Z,4.03
2022-08-28T21:33:07.946Z,3.60
2022-08-28T21:35:39.097Z,3.95
2022-08-28T21:38:10.910Z,3.70
2022-08-28T21:40:43.743Z,3.78
2022-08-28T21:43:18.017Z,3.72
2022-08-28T21:45:59.809Z,3.63
2022-08-28T21:48:33.101Z,4.10
2022-08-28T21:51:09.821Z,3.85
2022-08-28T21:53:45.756Z,4.43
2022-08-28T21:56:20.376Z,3.67
2022-08-28T21:58:56.831Z,4.43
2022-08-28T22:01:29.355Z,3.67
2022-08-28T22:04:01.364Z,3.78
2022-08-28T22:06:35.747Z,4.35
2022-08-28T22:09:10.539Z,4.28
2022-08-28T22:11:42.295Z,3.72
2022-08-28T22:14:16.946Z,3.72
2022-08-28T22:16:48.765Z,3.78
2022-08-28T22:19:22.147Z,3.47
2022-08-28T22:22:09.502Z,3.80
2022-08-28T22:24:41.570Z,4.35
2022-08-28T22:27:14.189Z,3.58
2022-08-28T22:29:48.910Z,3.83
2022-08-28T22:32:25.677Z,3.50
2022-08-28T22:34:58.011Z,3.75
2022-08-28T22:37:29.896Z,3.95
2022-08-28T22:40:02.545Z,3.65
2022-08-28T22:42:41.173Z,3.95
2022-08-28T22:45:17.621Z,4.80
2022-08-28T22:47:49.849Z,4.05
2022-08-28T22:50:22.136Z,4.10
2022-08-28T22:52:53.883Z,3.85
2022-08-28T22:55:27.967Z,3.58
2022-08-28T22:58:01.515Z,4.05
2022-08-28T23:00:37.046Z,3.80
2022-08-28T23:03:10.002Z,4.40
2022-08-28T23:05:42.150Z,3.83
2022-08-28T23:08:14.135Z,4.13
2022-08-28T23:10:58.917Z,4.47
2022-08-28T23:13:33.853Z,4.65
2022-08-28T23:16:10.824Z,4.18
2022-08-28T23:19:06.468Z,3.47
2022-08-28T23:21:39.251Z,4.30
2022-08-28T23:24:16.295Z,4.53
2022-08-28T23:26:49.354Z,3.80
2022-08-28T23:29:21.983Z,4.38
2022-08-28T23:31:57.338Z,4.00
2022-08-28T23:34:30.524Z,3.78
2022-08-28T23:37:03.175Z,3.97
2022-08-28T23:39:35.482Z,4.05
2022-08-28T23:42:08.575Z,4.22
2022-08-28T23:44:40.725Z,4.10
2022-08-28T23:47:16.156Z,4.20
2022-08-28T23:49:48.323Z,4.45
2022-08-28T23:52:21.121Z,3.90
2022-08-28T23:54:54.748Z,4.18
2022-08-28T23:57:28.090Z,3.92
